createdAt,value
2022-08-17T00:02:26.439Z,55.55
2022-08-17T00:04:55.417Z,55.63
2022-08-17T00:07:23.049Z,55.54
2022-08-17T00:09:50.467Z,55.59
2022-08-17T00:12:43.317Z,55.57
2022-08-17T00:15:08.203Z,55.54
2022-08-17T00:17:38.116Z,55.55
2022-08-17T00:20:06.106Z,55.73
2022-08-17T00:22:36.421Z,55.68
2022-08-17T00:25:12.210Z,55.73
2022-08-17T00:27:39.782Z,55.92
2022-08-17T00:30:10.347Z,56.02
2022-08-17T00:33:12.527Z,56.16
2022-08-17T00:35:31.917Z,56.17
2022-08-17T00:37:58.821Z,56.52
2022-08-17T00:40:26.739Z,56.36
2022-08-17T00:43:33.239Z,56.45
2022-08-17T00:46:02.172Z,56.55
2022-08-17T00:48:30.931Z,56.53
2022-08-17T00:51:22.809Z,56.69
2022-08-17T00:54:18.202Z,56.74
2022-08-17T00:56:51.209Z,56.91
2022-08-17T00:59:21.991Z,57.00
2022-08-17T01:01:50.948Z,57.00
2022-08-17T01:04:21.249Z,57.24
2022-08-17T01:06:49.683Z,57.24
2022-08-17T01:09:18.002Z,57.37
2022-08-17T01:11:48.371Z,57.40
2022-08-17T01:14:15.431Z,57.48
2022-08-17T01:16:42.497Z,57.36
2022-08-17T01:19:18.312Z,57.51
2022-08-17T01:22:07.756Z,57.56
2022-08-17T01:24:37.161Z,57.41
2022-08-17T01:27:10.259Z,57.58
2022-08-17T01:29:41.107Z,57.50
2022-08-17T01:32:08.606Z,57.46
2022-08-17T01:34:42.706Z,57.37
2022-08-17T01:37:13.284Z,57.23
2022-08-17T01:39:48.808Z,57.07
2022-08-17T01:42:26.791Z,57.05
2022-08-17T01:44:59.024Z,56.94
2022-08-17T01:47:26.212Z,56.96
2022-08-17T01:49:53.317Z,57.15
2022-08-17T01:52:22.063Z,57.19
2022-08-17T01:54:51.521Z,57.33
2022-08-17T01:57:18.912Z,57.36
2022-08-17T01:59:46.067Z,57.44
2022-08-17T02:02:13.019Z,57.60
2022-08-17T02:04:59.230Z,57.71
2022-08-17T02:07:27.024Z,57.86
2022-08-17T02:09:54.550Z,57.89
2022-08-17T02:12:37.839Z,58.05
2022-08-17T02:15:08.487Z,57.93
2022-08-17T02:17:35.897Z,58.06
2022-08-17T02:20:03.849Z,58.43
2022-08-17T02:22:31.154Z,58.38
2022-08-17T02:25:01.890Z,58.50
2022-08-17T02:27:31.254Z,58.51
2022-08-17T02:29:58.345Z,58.47
2022-08-17T02:32:28.536Z,58.23
2022-08-17T02:35:00.335Z,58.29
2022-08-17T02:37:29.882Z,58.38
2022-08-17T02:39:58.555Z,58.28
2022-08-17T02:42:31.523Z,58.25
2022-08-17T02:44:59.214Z,58.15
2022-08-17T02:47:28.771Z,58.21
2022-08-17T02:54:40.614Z,57.68
2022-08-17T02:57:10.301Z,57.49
2022-08-17T02:59:46.738Z,57.42
2022-08-17T03:02:16.179Z,57.44
2022-08-17T03:04:43.263Z,57.15
2022-08-17T03:07:10.252Z,56.84
2022-08-17T03:09:37.940Z,56.60
2022-08-17T03:12:13.061Z,56.64
2022-08-17T03:14:41.967Z,55.85
2022-08-17T03:17:16.920Z,55.75
2022-08-17T03:19:45.027Z,55.24
2022-08-17T03:22:36.247Z,54.54
2022-08-17T03:24:59.059Z,53.69
2022-08-17T03:27:26.513Z,53.06
2022-08-17T03:29:53.628Z,52.72
2022-08-17T03:32:20.930Z,52.49
2022-08-17T03:34:48.726Z,51.95
2022-08-17T03:37:15.928Z,51.02
2022-08-17T03:39:43.034Z,50.40
2022-08-17T03:42:31.359Z,49.53
2022-08-17T03:45:01.026Z,48.03
2022-08-17T03:47:47.196Z,46.55
2022-08-17T03:50:34.687Z,45.84
2022-08-17T03:53:25.277Z,44.97
2022-08-17T03:56:10.852Z,44.54
2022-08-17T03:58:38.049Z,44.00
2022-08-17T04:01:07.036Z,44.19
2022-08-17T04:03:34.207Z,43.19
2022-08-17T04:06:02.456Z,42.18
2022-08-17T04:08:30.255Z,41.36
2022-08-17T04:10:58.354Z,39.93
2022-08-17T04:13:25.622Z,39.37
2022-08-17T04:15:53.831Z,38.09
2022-08-17T04:18:20.913Z,36.90
2022-08-17T04:20:47.995Z,36.26
2022-08-17T04:23:18.563Z,35.67
2022-08-17T04:25:49.238Z,34.61
2022-08-17T04:28:20.236Z,34.10
2022-08-17T04:30:48.201Z,32.82
2022-08-17T04:33:21.726Z,32.21
2022-08-17T04:35:51.530Z,31.62
2022-08-17T04:38:24.590Z,30.66
2022-08-17T04:41:10.363Z,30.15
2022-08-17T04:43:39.329Z,29.95
2022-08-17T04:46:10.086Z,29.31
2022-08-17T04:48:40.494Z,29.09
2022-08-17T04:51:11.444Z,28.56
2022-08-17T04:53:44.499Z,28.00
2022-08-17T04:56:16.001Z,28.36
2022-08-17T04:58:45.776Z,27.27
2022-08-17T05:01:12.938Z,26.65
2022-08-17T05:03:40.104Z,26.40
2022-08-17T05:06:07.671Z,25.79
2022-08-17T05:08:35.146Z,26.10
2022-08-17T05:11:02.284Z,26.07
2022-08-17T05:13:32.780Z,24.82
2022-08-17T05:16:02.206Z,24.78
2022-08-17T05:18:30.493Z,23.92
2022-08-17T05:20:57.736Z,23.98
2022-08-17T05:23:27.706Z,23.92
2022-08-17T05:26:10.431Z,23.64
2022-08-17T05:28:48.170Z,22.94
2022-08-17T05:31:15.688Z,22.65
2022-08-17T05:33:46.168Z,22.03
2022-08-17T05:36:41.862Z,21.79
2022-08-17T05:39:02.780Z,21.43
2022-08-17T05:41:29.724Z,20.97
2022-08-17T05:43:56.815Z,20.89
2022-08-17T05:46:27.621Z,20.56
2022-08-17T05:49:10.038Z,20.91
2022-08-17T05:51:40.081Z,20.99
2022-08-17T05:54:49.743Z,20.51
2022-08-17T05:57:43.618Z,20.05
2022-08-17T06:00:30.807Z,19.46
2022-08-17T06:03:10.572Z,19.21
2022-08-17T06:06:05.175Z,18.26
2022-08-17T06:08:51.638Z,18.58
2022-08-17T06:11:28.152Z,18.04
2022-08-17T06:14:10.257Z,17.53
2022-08-17T06:16:45.736Z,17.76
2022-08-17T06:19:38.570Z,17.48
2022-08-17T06:22:08.769Z,16.90
2022-08-17T06:24:43.163Z,17.44
2022-08-17T06:27:36.240Z,17.08
2022-08-17T06:30:09.544Z,16.93
2022-08-17T06:32:44.797Z,16.61
2022-08-17T06:35:15.639Z,16.37
2022-08-17T06:38:37.178Z,16.27
2022-08-17T06:41:38.967Z,16.09
2022-08-17T06:44:43.211Z,16.29
2022-08-17T06:47:32.862Z,16.30
2022-08-17T06:50:31.935Z,15.92
2022-08-17T06:53:38.993Z,15.66
2022-08-17T06:56:11.732Z,15.51
2022-08-17T06:58:43.180Z,15.48
2022-08-17T07:01:18.387Z,15.36
2022-08-17T07:03:49.902Z,15.49
2022-08-17T07:06:23.643Z,15.32
2022-08-17T07:09:06.480Z,15.23
2022-08-17T07:11:36.500Z,14.96
2022-08-17T07:14:15.190Z,14.76
2022-08-17T07:16:50.797Z,14.54
2022-08-17T07:19:22.708Z,14.54
2022-08-17T07:26:13.352Z,15.50
2022-08-17T07:28:40.484Z,15.18
2022-08-17T07:31:14.234Z,16.29
2022-08-17T07:33:59.893Z,15.34
2022-08-17T07:36:30.030Z,14.88
2022-08-17T07:38:58.397Z,14.76
2022-08-17T07:41:25.489Z,14.35
2022-08-17T07:44:15.482Z,13.92
2022-08-17T07:47:10.844Z,14.11
2022-08-17T07:49:46.352Z,14.19
2022-08-17T07:52:50.821Z,14.14
2022-08-17T07:55:30.651Z,13.68
2022-08-17T07:57:59.484Z,14.07
2022-08-17T08:00:32.058Z,13.81
2022-08-17T08:03:26.116Z,13.30
2022-08-17T08:06:01.256Z,13.69
2022-08-17T08:08:52.262Z,13.48
2022-08-17T08:11:33.256Z,13.20
2022-08-17T08:14:28.708Z,13.27
2022-08-17T08:17:07.246Z,14.16
2022-08-17T08:19:36.575Z,13.97
2022-08-17T08:22:11.390Z,12.86
2022-08-17T08:25:02.682Z,13.55
2022-08-17T08:27:52.616Z,14.15
2022-08-17T08:30:21.895Z,13.96
2022-08-17T08:33:04.655Z,13.87
2022-08-17T08:35:58.939Z,13.81
2022-08-17T08:38:34.569Z,13.36
2022-08-17T08:41:12.329Z,13.90
2022-08-17T08:44:10.236Z,14.01
2022-08-17T08:47:18.308Z,13.86
2022-08-17T08:50:37.470Z,14.04
2022-08-17T08:53:21.984Z,14.00
2022-08-17T08:56:03.567Z,13.58
2022-08-17T08:58:43.681Z,13.59
2022-08-17T09:01:27.949Z,14.04
2022-08-17T09:04:25.416Z,13.74
2022-08-17T09:06:58.530Z,14.53
2022-08-17T09:09:43.636Z,14.95
2022-08-17T09:12:48.776Z,15.23
2022-08-17T09:15:20.957Z,16.08
2022-08-17T09:19:01.230Z,17.78
2022-08-17T09:21:22.597Z,18.28
2022-08-17T09:24:00.062Z,18.32
2022-08-17T09:26:39.658Z,18.91
2022-08-17T09:29:11.574Z,19.02
2022-08-17T09:32:01.750Z,19.68
2022-08-17T09:34:48.374Z,19.87
2022-08-17T09:37:43.273Z,20.96
2022-08-17T09:40:23.687Z,21.21
2022-08-17T09:43:01.043Z,20.74
2022-08-17T09:45:51.257Z,21.38
2022-08-17T09:48:30.642Z,21.53
2022-08-17T09:51:24.557Z,22.13
2022-08-17T09:53:51.837Z,22.13
2022-08-17T09:56:27.441Z,22.91
2022-08-17T09:59:00.571Z,23.56
2022-08-17T10:01:36.874Z,23.87
2022-08-17T10:04:12.993Z,24.34
2022-08-17T10:06:52.305Z,24.36
2022-08-17T10:09:39.526Z,24.05
2022-08-17T10:12:20.467Z,24.61
2022-08-17T10:15:07.709Z,24.85
2022-08-17T10:18:01.285Z,24.46
2022-08-17T10:21:19.518Z,24.88
2022-08-17T10:24:11.302Z,24.94
2022-08-17T10:26:55.844Z,25.46
2022-08-17T10:29:48.478Z,25.17
2022-08-17T10:32:42.282Z,25.57
2022-08-17T10:35:18.767Z,25.78
2022-08-17T10:38:26.866Z,26.32
2022-08-17T10:41:06.005Z,25.90
2022-08-17T10:44:39.054Z,26.09
2022-08-17T10:47:03.691Z,26.46
2022-08-17T10:49:34.103Z,26.57
2022-08-17T10:52:20.731Z,25.83
2022-08-17T10:55:09.115Z,25.97
2022-08-17T10:57:41.106Z,25.84
2022-08-17T11:00:14.829Z,25.77
2022-08-17T11:02:50.187Z,25.68
2022-08-17T11:05:43.847Z,25.49
2022-08-17T11:08:36.402Z,25.65
2022-08-17T11:11:35.976Z,25.86
2022-08-17T11:14:24.000Z,26.08
2022-08-17T11:17:09.373Z,26.17
2022-08-17T11:20:04.896Z,26.37
2022-08-17T11:22:55.767Z,26.77
2022-08-17T11:25:38.595Z,27.01
2022-08-17T11:28:24.683Z,27.25
2022-08-17T11:30:57.733Z,27.06
2022-08-17T11:33:34.230Z,27.04
2022-08-17T11:36:42.415Z,27.01
2022-08-17T11:39:23.150Z,27.19
2022-08-17T11:41:55.282Z,26.90
2022-08-17T11:44:31.333Z,27.19
2022-08-17T11:47:27.508Z,27.33
2022-08-17T11:50:27.725Z,27.37
2022-08-17T11:52:55.659Z,27.54
2022-08-17T11:55:39.556Z,27.45
2022-08-17T11:58:29.559Z,27.33
2022-08-17T12:01:23.047Z,27.54
2022-08-17T12:04:00.844Z,27.57
2022-08-17T12:06:42.640Z,27.61
2022-08-17T12:09:17.264Z,27.74
2022-08-17T12:12:10.976Z,27.92
2022-08-17T12:15:08.072Z,27.80
2022-08-17T12:17:40.140Z,27.92
2022-08-17T12:20:22.207Z,27.68
2022-08-17T12:23:12.223Z,27.61
2022-08-17T12:25:47.673Z,27.91
2022-08-17T12:28:26.796Z,27.79
2022-08-17T12:30:54.640Z,27.95
2022-08-17T12:33:25.778Z,27.88
2022-08-17T12:36:04.905Z,27.77
2022-08-17T12:38:34.814Z,27.52
2022-08-17T12:41:25.041Z,27.38
2022-08-17T12:44:09.620Z,27.10
2022-08-17T12:46:48.195Z,27.07
2022-08-17T12:49:29.965Z,27.31
2022-08-17T12:52:23.756Z,27.27
2022-08-17T12:55:01.975Z,26.82
2022-08-17T12:57:43.085Z,26.94
2022-08-17T13:00:16.456Z,27.28
2022-08-17T13:02:54.560Z,26.76
2022-08-17T13:05:28.649Z,26.58
2022-08-17T13:07:58.163Z,26.65
2022-08-17T13:10:37.844Z,26.64
2022-08-17T13:13:19.552Z,26.89
2022-08-17T13:15:58.810Z,27.54
2022-08-17T13:18:34.244Z,26.97
2022-08-17T13:21:01.414Z,26.72
2022-08-17T13:23:32.369Z,26.96
2022-08-17T13:26:06.899Z,27.17
2022-08-17T13:28:36.799Z,26.97
2022-08-17T13:31:24.174Z,27.63
2022-08-17T13:33:51.219Z,27.62
2022-08-17T13:36:30.259Z,27.34
2022-08-17T13:39:27.424Z,27.63
2022-08-17T13:41:56.171Z,27.46
2022-08-17T13:44:35.005Z,27.72
2022-08-17T13:47:04.753Z,27.65
2022-08-17T13:49:48.490Z,27.61
2022-08-17T13:52:40.422Z,27.74
2022-08-17T13:55:18.570Z,27.87
2022-08-17T13:57:57.786Z,27.76
2022-08-17T14:00:36.525Z,27.89
2022-08-17T14:03:05.748Z,27.84
2022-08-17T14:05:33.934Z,28.13
2022-08-17T14:08:06.616Z,28.38
2022-08-17T14:10:36.657Z,28.11
2022-08-17T14:13:04.587Z,28.18
2022-08-17T14:15:54.712Z,28.42
2022-08-17T14:18:34.291Z,28.38
2022-08-17T14:21:08.808Z,28.46
2022-08-17T14:23:37.305Z,28.51
2022-08-17T14:26:04.991Z,28.54
2022-08-17T14:28:32.635Z,28.47
2022-08-17T14:31:00.881Z,28.45
2022-08-17T14:34:04.565Z,28.86
2022-08-17T14:36:32.475Z,28.20
2022-08-17T14:38:59.456Z,28.35
2022-08-17T14:41:26.568Z,28.32
2022-08-17T14:43:54.022Z,28.53
2022-08-17T14:46:21.049Z,28.51
2022-08-17T14:48:51.733Z,28.29
2022-08-17T14:51:23.306Z,28.36
2022-08-17T14:53:53.126Z,28.58
2022-08-17T14:56:22.432Z,28.73
2022-08-17T14:58:49.459Z,28.84
2022-08-17T15:01:20.908Z,28.71
2022-08-17T15:03:48.609Z,28.72
2022-08-17T15:06:16.471Z,28.80
2022-08-17T15:08:43.966Z,28.83
2022-08-17T15:11:14.793Z,28.66
2022-08-17T15:13:53.030Z,29.04
2022-08-17T15:16:20.623Z,28.72
2022-08-17T15:18:48.525Z,28.89
2022-08-17T15:21:16.077Z,28.50
2022-08-17T15:23:43.026Z,29.07
2022-08-17T15:26:11.242Z,28.93
2022-08-17T15:28:38.406Z,28.90
2022-08-17T15:31:06.835Z,28.98
2022-08-17T15:33:34.025Z,29.02
2022-08-17T15:36:06.569Z,29.29
2022-08-17T15:38:36.897Z,29.40
2022-08-17T15:41:04.086Z,29.41
2022-08-17T15:43:32.682Z,29.34
2022-08-17T15:46:01.822Z,29.31
2022-08-17T15:48:43.498Z,29.50
2022-08-17T15:51:24.181Z,29.37
2022-08-17T15:54:00.187Z,29.96
2022-08-17T15:56:32.235Z,30.02
2022-08-17T15:58:59.840Z,29.80
2022-08-17T16:02:27.724Z,30.30
2022-08-17T16:04:30.381Z,30.34
2022-08-17T16:06:58.844Z,30.65
2022-08-17T16:09:26.023Z,30.45
2022-08-17T16:11:55.536Z,30.55
2022-08-17T16:14:28.877Z,28.21
2022-08-17T16:17:00.903Z,30.63
2022-08-17T16:19:28.025Z,30.68
2022-08-17T16:21:55.101Z,30.86
2022-08-17T16:24:22.167Z,30.70
2022-08-17T16:26:49.171Z,31.06
2022-08-17T16:29:16.275Z,30.71
2022-08-17T16:31:43.624Z,31.03
2022-08-17T16:34:17.285Z,31.00
2022-08-17T16:36:54.927Z,30.85
2022-08-17T16:39:27.558Z,30.98
2022-08-17T16:41:56.148Z,31.17
2022-08-17T16:44:27.549Z,31.19
2022-08-17T16:46:54.796Z,31.47
2022-08-17T16:49:36.238Z,30.84
2022-08-17T16:52:10.418Z,30.95
2022-08-17T16:54:41.970Z,31.22
2022-08-17T16:57:10.501Z,31.40
2022-08-17T16:59:41.867Z,31.48
2022-08-17T17:02:13.870Z,31.59
2022-08-17T17:04:53.770Z,31.49
2022-08-17T17:07:33.985Z,31.62
2022-08-17T17:10:09.107Z,31.55
2022-08-17T17:13:01.183Z,31.66
2022-08-17T17:15:31.760Z,31.92
2022-08-17T17:18:07.097Z,31.84
2022-08-17T17:20:47.724Z,31.85
2022-08-17T17:23:37.840Z,32.17
2022-08-17T17:26:40.748Z,32.38
2022-08-17T17:29:58.495Z,33.47
2022-08-17T17:32:38.090Z,33.53
2022-08-17T17:35:34.186Z,32.94
2022-08-17T17:38:12.299Z,33.25
2022-08-17T17:40:44.898Z,33.12
2022-08-17T17:43:37.748Z,33.35
2022-08-17T17:46:26.722Z,33.32
2022-08-17T17:48:55.437Z,33.51
2022-08-17T17:52:09.605Z,33.35
2022-08-17T17:54:53.115Z,33.42
2022-08-17T17:57:55.886Z,33.55
2022-08-17T18:00:37.375Z,33.62
2022-08-17T18:03:31.100Z,33.95
2022-08-17T18:06:32.161Z,33.85
2022-08-17T18:09:33.849Z,34.16
2022-08-17T18:12:19.950Z,34.38
2022-08-17T18:15:01.533Z,34.31
2022-08-17T18:17:45.554Z,34.45
2022-08-17T18:20:36.472Z,34.53
2022-08-17T18:23:11.228Z,34.71
2022-08-17T18:25:48.075Z,34.56
2022-08-17T18:28:30.819Z,34.71
2022-08-17T18:31:17.526Z,34.66
2022-08-17T18:34:45.753Z,34.79
2022-08-17T18:37:11.149Z,34.96
2022-08-17T18:39:45.378Z,35.05
2022-08-17T18:42:29.069Z,35.18
2022-08-17T18:44:56.389Z,35.38
2022-08-17T18:47:29.476Z,35.35
2022-08-17T18:50:24.523Z,35.58
2022-08-17T18:52:51.610Z,35.73
2022-08-17T18:55:23.184Z,35.78
2022-08-17T18:57:53.138Z,35.74
2022-08-17T19:00:36.307Z,36.06
2022-08-17T19:03:22.108Z,35.99
2022-08-17T19:05:55.151Z,36.35
2022-08-17T19:08:28.409Z,36.46
2022-08-17T19:10:59.898Z,36.58
2022-08-17T19:13:47.586Z,36.77
2022-08-17T19:16:21.129Z,36.83
2022-08-17T19:19:00.278Z,36.93
2022-08-17T19:21:32.487Z,37.27
2022-08-17T19:24:09.891Z,37.11
2022-08-17T19:26:54.501Z,37.25
2022-08-17T19:29:29.503Z,37.33
2022-08-17T19:31:58.726Z,37.64
2022-08-17T19:34:33.906Z,37.95
2022-08-17T19:37:10.275Z,38.15
2022-08-17T19:39:55.668Z,37.93
2022-08-17T19:42:55.140Z,38.38
2022-08-17T19:45:45.617Z,37.84
2022-08-17T19:48:21.303Z,37.98
2022-08-17T19:51:31.481Z,37.99
2022-08-17T19:54:35.154Z,38.13
2022-08-17T19:57:23.290Z,38.39
2022-08-17T20:00:13.801Z,38.70
2022-08-17T20:02:50.362Z,38.93
2022-08-17T20:05:26.298Z,38.81
2022-08-17T20:08:01.442Z,38.94
2022-08-17T20:10:54.866Z,39.23
2022-08-17T20:13:33.145Z,38.89
2022-08-17T20:16:04.673Z,39.09
2022-08-17T20:18:37.726Z,39.29
2022-08-17T20:21:19.857Z,39.30
2022-08-17T20:23:50.777Z,39.31
2022-08-17T20:26:39.419Z,39.49
2022-08-17T20:29:09.085Z,39.52
2022-08-17T20:31:59.382Z,39.92
2022-08-17T20:34:33.458Z,40.07
2022-08-17T20:37:27.957Z,39.79
2022-08-17T20:39:58.007Z,40.06
2022-08-17T20:42:26.030Z,40.33
2022-08-17T20:45:01.833Z,40.39
2022-08-17T20:48:00.769Z,40.67
2022-08-17T20:50:38.786Z,40.85
2022-08-17T20:53:10.184Z,40.79
2022-08-17T20:55:51.398Z,40.84
2022-08-17T20:58:23.198Z,40.98
2022-08-17T21:00:56.211Z,41.38
2022-08-17T21:03:23.808Z,41.47
2022-08-17T21:06:00.790Z,41.61
2022-08-17T21:08:54.468Z,41.89
2022-08-17T21:11:56.748Z,41.67
2022-08-17T21:14:57.479Z,41.96
2022-08-17T21:17:39.398Z,41.81
2022-08-17T21:20:34.790Z,41.91
2022-08-17T21:23:35.094Z,42.26
2022-08-17T21:26:30.385Z,42.40
2022-08-17T21:29:31.136Z,42.79
2022-08-17T21:32:00.969Z,42.72
2022-08-17T21:34:42.609Z,42.93
2022-08-17T21:37:19.082Z,43.32
2022-08-17T21:39:51.938Z,43.44
2022-08-17T21:42:34.665Z,43.59
2022-08-17T21:45:11.138Z,43.37
2022-08-17T21:47:43.557Z,43.47
2022-08-17T21:50:25.766Z,43.91
2022-08-17T21:52:54.202Z,43.97
2022-08-17T21:55:29.838Z,44.28
2022-08-17T21:58:13.727Z,44.10
2022-08-17T22:00:46.126Z,44.19
2022-08-17T22:03:26.184Z,44.64
2022-08-17T22:05:53.162Z,44.74
2022-08-17T22:08:23.876Z,44.81
2022-08-17T22:11:03.213Z,44.50
2022-08-17T22:13:30.316Z,44.56
2022-08-17T22:16:15.654Z,44.96
2022-08-17T22:18:58.209Z,44.96
2022-08-17T22:21:25.596Z,45.18
2022-08-17T22:24:04.439Z,45.27
2022-08-17T22:27:11.764Z,45.27
2022-08-17T22:29:58.455Z,45.57
2022-08-17T22:32:55.573Z,45.32
2022-08-17T22:35:29.244Z,45.58
2022-08-17T22:37:57.275Z,45.52
2022-08-17T22:40:29.143Z,45.87
2022-08-17T22:42:57.811Z,46.15
2022-08-17T22:45:31.260Z,45.92
2022-08-17T22:48:01.587Z,46.31
2022-08-17T22:50:33.110Z,46.71
2022-08-17T22:53:33.670Z,47.33
2022-08-17T22:56:19.105Z,47.50
2022-08-17T22:59:12.463Z,47.77
2022-08-17T23:01:41.382Z,47.91
2022-08-17T23:04:12.195Z,48.13
2022-08-17T23:06:42.637Z,48.19
2022-08-17T23:09:09.711Z,48.11
2022-08-17T23:11:49.089Z,48.26
2022-08-17T23:14:20.033Z,48.38
2022-08-17T23:16:51.172Z,48.64
2022-08-17T23:19:23.899Z,48.63
2022-08-17T23:21:54.446Z,48.56
2022-08-17T23:24:24.892Z,49.05
2022-08-17T23:26:57.483Z,49.06
2022-08-17T23:29:26.791Z,48.89
2022-08-17T23:31:53.863Z,48.77
2022-08-17T23:34:24.322Z,48.86
2022-08-17T23:36:52.347Z,48.92
2022-08-17T23:39:27.323Z,49.20
2022-08-17T23:42:00.545Z,49.21
2022-08-17T23:44:28.977Z,49.02
2022-08-17T23:46:58.393Z,48.81
2022-08-17T23:49:25.567Z,48.51
2022-08-17T23:51:54.801Z,48.43
2022-08-17T23:54:21.682Z,48.34
2022-08-17T23:56:48.718Z,48.27
2022-08-17T23:59:17.934Z,48.26
